Rigaud, Canada
Current Conditions -  °F | °C
As of 7:00 AM on Sunday 23 Nov 2014 (Local Time) from CYMX Reporting Station
Haze Haze  
Wind Chill: 37°   Ceiling: 100
Heat Index: 37°   Visibility: 0.75mi
Dew Point: 36°   Wind: 3mph
Humidity: 93%   Direction: 220°SW
Pressure: 29.99"   Gusts: NA
Location:  45.47°N, 74.3°W
Report Text: CYMX 231200Z 22003KT 200V260 3/4SM BR VV001 03/02 A2999 RMK FG8 VIS VRB 1/2-1 SLP158
Loading
Personal Weather Stations






























Interactive Weather Map New forecast layout! Learn more

10-Day Weather Forecast

Advertisements
Track Severe Weather on mobile